^^
Datos históricos de la estación: Murcia-Puente Tocinos
Diario Informe para Marzo 13, 2019 Unidades:  Ambas    Ingés   Métrico
Diario Semanal Mensual Anual
  Máxima: Mínima: Promedio:
Temperatura: 63.9 °F /  17.7 °C 37.9 °F /  3.3 °C 48.9 °F /  9.4 °C
Punto de rocio: 39 °F /  3.9 °C 27.1 °F /  -2.7 °C 31.8 °F /  -0.1 °C
Humedad: 72% 30% 54%
Velocidad viento: 8.1mph /  13km/h - 4.7mph /  7.5km/h
Racha viento: 17.3mph /  27.8km/h - -
Viento- - SSO
Presión: 30.3 in /  1027.4 hPa 30.2 in /  1021.3 hPa -
Precipitación: 0 in /  0.0 mm    
 
 
Tabla de datos para Marzo 13, 2019
Hora Temperatura Punto de rocio Presión Viento Velocidad viento Racha viento Humedad Intensidad lluvia(por hora) Nubes
00:04 42.8 °F /  6 °C 31.5 °F /  -0.3 °C 30.3in /  1027.4hPa SSO 4.3mph /  6.9km/h 6mph /  9.7km/h 64% 0in /  0.0mm
00:09 42.8 °F /  6 °C 31.5 °F /  -0.3 °C 30.3in /  1027.4hPa SSO 3.7mph /  5.9km/h 5mph /  8km/h 64% 0in /  0.0mm
00:14 42.6 °F /  5.9 °C 31.3 °F /  -0.4 °C 30.3in /  1027.4hPa Sur 3.1mph /  5km/h 5mph /  8km/h 64% 0in /  0.0mm
00:19 42.3 °F /  5.7 °C 31.1 °F /  -0.5 °C 30.3in /  1027.4hPa Sur 3mph /  4.8km/h 5mph /  8km/h 64.5% 0in /  0.0mm
00:24 41.9 °F /  5.5 °C 31.1 °F /  -0.5 °C 30.3in /  1027.4hPa SSE 2.9mph /  4.7km/h 5mph /  8km/h 65.4% 0in /  0.0mm
00:29 41.4 °F /  5.2 °C 30.9 °F /  -0.6 °C 30.3in /  1027.4hPa SSE 3mph /  4.8km/h 5.8mph /  9.3km/h 66.2% 0in /  0.0mm
00:34 41.2 °F /  5.1 °C 31.3 °F /  -0.4 °C 30.3in /  1027.4hPa Sur 3.1mph /  5km/h 6mph /  9.7km/h 67.4% 0in /  0.0mm
00:39 41.2 °F /  5.1 °C 31.5 °F /  -0.3 °C 30.3in /  1027.3hPa Sur 3.4mph /  5.4km/h 6.9mph /  11.1km/h 68% 0in /  0.0mm
00:44 41.4 °F /  5.2 °C 31.6 °F /  -0.2 °C 30.3in /  1027.3hPa Sur 3.6mph /  5.8km/h 8.1mph /  13km/h 68% 0in /  0.0mm
00:49 41.7 °F /  5.4 °C 31.8 °F /  -0.1 °C 30.3in /  1027.3hPa Sur 4mph /  6.4km/h 8mph /  12.9km/h 68% 0in /  0.0mm
00:54 41.7 °F /  5.4 °C 31.8 °F /  -0.1 °C 30.3in /  1027.2hPa Sur 4.3mph /  6.9km/h 5mph /  8km/h 68% 0in /  0.0mm
00:59 41.7 °F /  5.4 °C 31.8 °F /  -0.1 °C 30.3in /  1027.2hPa Sur 3.2mph /  5.1km/h 5.8mph /  9.3km/h 68% 0in /  0.0mm
01:04 41.5 °F /  5.3 °C 31.8 °F /  -0.1 °C 30.3in /  1027.2hPa Sur 2.4mph /  3.9km/h 6mph /  9.7km/h 68% 0in /  0.0mm
01:09 41.5 °F /  5.3 °C 31.8 °F /  -0.1 °C 30.3in /  1027.1hPa Sur 2.9mph /  4.6km/h 5mph /  8km/h 68% 0in /  0.0mm
01:14 41.5 °F /  5.3 °C 31.6 °F /  -0.2 °C 30.3in /  1027.1hPa Sur 3.1mph /  5km/h 5mph /  8km/h 68% 0in /  0.0mm
01:19 41.4 °F /  5.2 °C 31.8 °F /  -0.1 °C 30.3in /  1027.1hPa Sur 3.1mph /  5km/h 6.9mph /  11.1km/h 68.5% 0in /  0.0mm
01:24 41.4 °F /  5.2 °C 31.8 °F /  -0.1 °C 30.3in /  1027.0hPa Sur 3.1mph /  5km/h 7mph /  11.3km/h 69% 0in /  0.0mm
01:29 41 °F /  5 °C 31.6 °F /  -0.2 °C 30.3in /  1027.0hPa SSE 3.9mph /  6.2km/h 6.9mph /  11.1km/h 69% 0in /  0.0mm
01:34 40.6 °F /  4.8 °C 31.5 °F /  -0.3 °C 30.3in /  1027.0hPa Sur 4.3mph /  6.9km/h 7mph /  11.3km/h 69.2% 0in /  0.0mm
01:39 40.5 °F /  4.7 °C 31.5 °F /  -0.3 °C 30.3in /  1027.0hPa SSE 4.3mph /  6.9km/h 8.1mph /  13km/h 70% 0in /  0.0mm
01:44 39.9 °F /  4.4 °C 31.3 °F /  -0.4 °C 30.3in /  1027.0hPa Sur 4.3mph /  6.9km/h 8mph /  12.9km/h 70.6% 0in /  0.0mm
01:49 39.6 °F /  4.2 °C 31.1 °F /  -0.5 °C 30.3in /  1027.0hPa Sur 4.8mph /  7.8km/h 9.7mph /  15.6km/h 71.4% 0in /  0.0mm
01:54 39.2 °F /  4 °C 30.9 °F /  -0.6 °C 30.3in /  1026.6hPa Sur 5.2mph /  8.4km/h 10mph /  16.1km/h 72% 0in /  0.0mm
01:59 39 °F /  3.9 °C 30.7 °F /  -0.7 °C 30.3in /  1026.6hPa Sur 6mph /  9.7km/h 10mph /  16.1km/h 71.7% 0in /  0.0mm
02:04 39 °F /  3.9 °C 30.4 °F /  -0.9 °C 30.3in /  1026.7hPa Sur 6.4mph /  10.3km/h 9.2mph /  14.8km/h 70.7% 0in /  0.0mm
02:09 39 °F /  3.9 °C 29.8 °F /  -1.2 °C 30.3in /  1026.7hPa Sur 6.1mph /  9.8km/h 9mph /  14.5km/h 69.5% 0in /  0.0mm
02:14 39 °F /  3.9 °C 29.3 °F /  -1.5 °C 30.3in /  1026.7hPa Sur 5.9mph /  9.5km/h 10.4mph /  16.7km/h 67.8% 0in /  0.0mm
02:19 39.2 °F /  4 °C 28.8 °F /  -1.8 °C 30.3in /  1026.7hPa SSO 6.5mph /  10.5km/h 10.4mph /  16.7km/h 65.7% 0in /  0.0mm
02:24 39.6 °F /  4.2 °C 28.8 °F /  -1.8 °C 30.3in /  1026.5hPa SSO 6.9mph /  11.1km/h 10mph /  16.1km/h 64.9% 0in /  0.0mm
02:29 39.7 °F /  4.3 °C 29.1 °F /  -1.6 °C 30.3in /  1026.5hPa SSO 6.3mph /  10.1km/h 9mph /  14.5km/h 65.2% 0in /  0.0mm
02:34 40.1 °F /  4.5 °C 29.7 °F /  -1.3 °C 30.3in /  1026.5hPa SSO 5.9mph /  9.5km/h 9.2mph /  14.8km/h 66.1% 0in /  0.0mm
02:39 40.5 °F /  4.7 °C 30.4 °F /  -0.9 °C 30.3in /  1026.4hPa SSO 5.9mph /  9.5km/h 9.2mph /  14.8km/h 67% 0in /  0.0mm
02:44 40.6 °F /  4.8 °C 30.6 °F /  -0.8 °C 30.3in /  1026.4hPa SSO 5.9mph /  9.5km/h 10mph /  16.1km/h 67% 0in /  0.0mm
02:49 40.8 °F /  4.9 °C 30.7 °F /  -0.7 °C 30.3in /  1026.4hPa SSO 5.9mph /  9.5km/h 10.4mph /  16.7km/h 67% 0in /  0.0mm
02:54 40.8 °F /  4.9 °C 30.7 °F /  -0.7 °C 30.3in /  1026.4hPa SSO 5.9mph /  9.5km/h 9mph /  14.5km/h 67% 0in /  0.0mm
02:59 40.6 °F /  4.8 °C 30.6 °F /  -0.8 °C 30.3in /  1026.4hPa SO 5mph /  8.1km/h 8mph /  12.9km/h 67% 0in /  0.0mm
03:04 40.5 °F /  4.7 °C 30.4 °F /  -0.9 °C 30.3in /  1026.5hPa SO 4.7mph /  7.6km/h 7mph /  11.3km/h 67% 0in /  0.0mm
03:09 40.3 °F /  4.6 °C 30.6 °F /  -0.8 °C 30.3in /  1026.5hPa SO 4.7mph /  7.6km/h 8.1mph /  13km/h 67.9% 0in /  0.0mm
03:14 39.9 °F /  4.4 °C 30.2 °F /  -1 °C 30.3in /  1026.5hPa SO 4.7mph /  7.6km/h 8.1mph /  13km/h 68% 0in /  0.0mm
03:19 39.9 °F /  4.4 °C 30.2 °F /  -1 °C 30.3in /  1026.5hPa OSO 4.5mph /  7.2km/h 8mph /  12.9km/h 68% 0in /  0.0mm
03:24 39.7 °F /  4.3 °C 30 °F /  -1.1 °C 30.3in /  1026.4hPa SSO 4.3mph /  6.9km/h 8.1mph /  13km/h 68.1% 0in /  0.0mm
03:29 39.7 °F /  4.3 °C 30.2 °F /  -1 °C 30.3in /  1026.4hPa SSO 4.1mph /  6.6km/h 9.2mph /  14.8km/h 68.5% 0in /  0.0mm
03:34 39.7 °F /  4.3 °C 30 °F /  -1.1 °C 30.3in /  1026.4hPa SSO 4mph /  6.5km/h 9mph /  14.5km/h 68% 0in /  0.0mm
03:39 39.7 °F /  4.3 °C 30 °F /  -1.1 °C 30.3in /  1026.3hPa SSO 4.5mph /  7.2km/h 9.2mph /  14.8km/h 68% 0in /  0.0mm
03:44 39.9 °F /  4.4 °C 30 °F /  -1.1 °C 30.3in /  1026.3hPa SSO 4.7mph /  7.6km/h 12.5mph /  20.1km/h 67.1% 0in /  0.0mm
03:49 40.3 °F /  4.6 °C 29.7 °F /  -1.3 °C 30.3in /  1026.3hPa SSO 5.8mph /  9.3km/h 13mph /  20.9km/h 66% 0in /  0.0mm
03:54 39.9 °F /  4.4 °C 29.5 °F /  -1.4 °C 30.3in /  1026.0hPa Sur 6.4mph /  10.3km/h 12mph /  19.3km/h 66% 0in /  0.0mm
03:59 39.6 °F /  4.2 °C 29.5 °F /  -1.4 °C 30.3in /  1026.0hPa SSO 6.8mph /  10.9km/h 12mph /  19.3km/h 67% 0in /  0.0mm
04:04 39.4 °F /  4.1 °C 29.3 °F /  -1.5 °C 30.3in /  1026.0hPa SSO 6.9mph /  11.1km/h 10mph /  16.1km/h 67% 0in /  0.0mm
04:09 39.4 °F /  4.1 °C 29.3 °F /  -1.5 °C 30.3in /  1025.8hPa SO 5.8mph /  9.4km/h 8mph /  12.9km/h 67% 0in /  0.0mm
04:14 39.4 °F /  4.1 °C 29.1 °F /  -1.6 °C 30.3in /  1025.8hPa SO 5.2mph /  8.4km/h 8.1mph /  13km/h 66.5% 0in /  0.0mm
04:19 39.4 °F /  4.1 °C 28.8 °F /  -1.8 °C 30.3in /  1025.8hPa SSO 4.6mph /  7.4km/h 8.1mph /  13km/h 65.4% 0in /  0.0mm
04:24 39.4 °F /  4.1 °C 28.8 °F /  -1.8 °C 30.3in /  1025.8hPa SSO 4.3mph /  6.9km/h 8.1mph /  13km/h 65.2% 0in /  0.0mm
04:29 39.4 °F /  4.1 °C 28.9 °F /  -1.7 °C 30.3in /  1025.8hPa SSO 4.5mph /  7.3km/h 8mph /  12.9km/h 66% 0in /  0.0mm
04:34 39.2 °F /  4 °C 28.8 °F /  -1.8 °C 30.3in /  1025.8hPa SSO 4.7mph /  7.6km/h 7.4mph /  11.9km/h 66% 0in /  0.0mm
04:39 39.2 °F /  4 °C 29.1 °F /  -1.6 °C 30.3in /  1025.8hPa Sur 5mph /  8.1km/h 8.1mph /  13km/h 66.7% 0in /  0.0mm
04:44 39 °F /  3.9 °C 29.1 °F /  -1.6 °C 30.3in /  1025.8hPa Sur 5.2mph /  8.4km/h 8mph /  12.9km/h 67% 0in /  0.0mm
04:49 39 °F /  3.9 °C 28.9 °F /  -1.7 °C 30.3in /  1025.9hPa Sur 4.6mph /  7.4km/h 7.4mph /  11.9km/h 67% 0in /  0.0mm
04:54 38.7 °F /  3.7 °C 28.9 °F /  -1.7 °C 30.3in /  1025.9hPa Sur 4.3mph /  6.9km/h 8.1mph /  13km/h 67.6% 0in /  0.0mm
04:59 38.5 °F /  3.6 °C 28.9 °F /  -1.7 °C 30.3in /  1025.9hPa Sur 4.9mph /  7.9km/h 8.1mph /  13km/h 68% 0in /  0.0mm
05:04 38.3 °F /  3.5 °C 28.8 °F /  -1.8 °C 30.3in /  1026.0hPa Sur 5.2mph /  8.4km/h 8.1mph /  13km/h 68% 0in /  0.0mm
05:09 38.1 °F /  3.4 °C 28.6 °F /  -1.9 °C 30.3in /  1026.0hPa Sur 5.3mph /  8.6km/h 8.5mph /  13.7km/h 68% 0in /  0.0mm
05:14 38.1 °F /  3.4 °C 28.6 °F /  -1.9 °C 30.3in /  1026.0hPa Sur 5.4mph /  8.7km/h 10.4mph /  16.7km/h 68% 0in /  0.0mm
05:19 37.9 °F /  3.3 °C 28.4 °F /  -2 °C 30.3in /  1026.0hPa Sur 5.7mph /  9.2km/h 10.4mph /  16.7km/h 68% 0in /  0.0mm
05:24 38.1 °F /  3.4 °C 28.6 °F /  -1.9 °C 30.3in /  1025.9hPa SSO 5.9mph /  9.5km/h 10.4mph /  16.7km/h 68% 0in /  0.0mm
05:29 38.1 °F /  3.4 °C 28.2 °F /  -2.1 °C 30.3in /  1025.9hPa SSO 6.5mph /  10.5km/h 10.7mph /  17.2km/h 67.4% 0in /  0.0mm
05:34 38.5 °F /  3.6 °C 28.2 °F /  -2.1 °C 30.3in /  1025.9hPa SSO 6.9mph /  11.1km/h 11mph /  17.7km/h 66.5% 0in /  0.0mm
05:39 38.5 °F /  3.6 °C 28.2 °F /  -2.1 °C 30.3in /  1025.8hPa SSO 6.9mph /  11.1km/h 11.5mph /  18.5km/h 66% 0in /  0.0mm
05:44 38.8 °F /  3.8 °C 28 °F /  -2.2 °C 30.3in /  1025.8hPa SSO 6.9mph /  11.1km/h 12mph /  19.3km/h 65.2% 0in /  0.0mm
05:49 39 °F /  3.9 °C 28.2 °F /  -2.1 °C 30.3in /  1025.8hPa SO 7.2mph /  11.6km/h 11mph /  17.7km/h 65% 0in /  0.0mm
05:54 39 °F /  3.9 °C 28 °F /  -2.2 °C 30.3in /  1025.8hPa SO 7.4mph /  11.9km/h 10mph /  16.1km/h 64.6% 0in /  0.0mm
05:59 39.2 °F /  4 °C 28 °F /  -2.2 °C 30.3in /  1025.8hPa OSO 5.9mph /  9.5km/h 9mph /  14.5km/h 64% 0in /  0.0mm
06:04 39.4 °F /  4.1 °C 27.9 °F /  -2.3 °C 30.3in /  1025.8hPa SO 5.2mph /  8.4km/h 8mph /  12.9km/h 63% 0in /  0.0mm
06:09 39.4 °F /  4.1 °C 27.9 °F /  -2.3 °C 30.3in /  1025.7hPa SO 4.4mph /  7.1km/h 6.9mph /  11.1km/h 63% 0in /  0.0mm
06:14 39.4 °F /  4.1 °C 27.5 °F /  -2.5 °C 30.3in /  1025.7hPa SO 4mph /  6.5km/h 7.4mph /  11.9km/h 62.3% 0in /  0.0mm
06:19 39.4 °F /  4.1 °C 27.5 °F /  -2.5 °C 30.3in /  1025.7hPa SO 4.5mph /  7.2km/h 8.1mph /  13km/h 62% 0in /  0.0mm
06:24 39.4 °F /  4.1 °C 27.3 °F /  -2.6 °C 30.3in /  1025.7hPa SSO 4.7mph /  7.6km/h 8.1mph /  13km/h 62% 0in /  0.0mm
06:29 39.6 °F /  4.2 °C 27.5 °F /  -2.5 °C 30.3in /  1025.7hPa Sur 4.7mph /  7.6km/h 8mph /  12.9km/h 62% 0in /  0.0mm
06:34 39.2 °F /  4 °C 27.3 °F /  -2.6 °C 30.3in /  1025.7hPa Sur 4.7mph /  7.6km/h 7mph /  11.3km/h 62% 0in /  0.0mm
06:39 38.8 °F /  3.8 °C 27.1 °F /  -2.7 °C 30.3in /  1025.4hPa SSO 5mph /  8.1km/h 8.1mph /  13km/h 62.7% 0in /  0.0mm
06:44 38.7 °F /  3.7 °C 27.1 °F /  -2.7 °C 30.3in /  1025.4hPa SO 5.2mph /  8.4km/h 8mph /  12.9km/h 63% 0in /  0.0mm
06:49 38.7 °F /  3.7 °C 27.1 °F /  -2.7 °C 30.3in /  1025.4hPa SSO 4.4mph /  7.1km/h 7mph /  11.3km/h 63% 0in /  0.0mm
06:54 38.7 °F /  3.7 °C 27.1 °F /  -2.7 °C 30.3in /  1025.4hPa SO 4mph /  6.5km/h 8.1mph /  13km/h 63% 0in /  0.0mm
06:59 38.8 °F /  3.8 °C 27.3 °F /  -2.6 °C 30.3in /  1025.4hPa SO 4.2mph /  6.8km/h 10.7mph /  17.2km/h 63% 0in /  0.0mm
07:04 39 °F /  3.9 °C 27.1 °F /  -2.7 °C 30.3in /  1025.4hPa SO 4.3mph /  6.9km/h 11mph /  17.7km/h 62% 0in /  0.0mm
07:09 39 °F /  3.9 °C 27.1 °F /  -2.7 °C 30.3in /  1025.1hPa SO 4.9mph /  7.9km/h 10.4mph /  16.7km/h 62% 0in /  0.0mm
07:14 39 °F /  3.9 °C 27.1 °F /  -2.7 °C 30.3in /  1025.1hPa SO 5.2mph /  8.4km/h 10mph /  16.1km/h 62% 0in /  0.0mm
07:19 39.2 °F /  4 °C 27.3 °F /  -2.6 °C 30.3in /  1025.1hPa SO 5.7mph /  9.1km/h 10.4mph /  16.7km/h 62% 0in /  0.0mm
07:24 39.7 °F /  4.3 °C 27.3 °F /  -2.6 °C 30.3in /  1025.1hPa SO 5.9mph /  9.5km/h 10.7mph /  17.2km/h 61% 0in /  0.0mm
07:29 40.5 °F /  4.7 °C 27.5 °F /  -2.5 °C 30.3in /  1025.1hPa SO 6.1mph /  9.8km/h 11mph /  17.7km/h 59.8% 0in /  0.0mm
07:34 40.6 °F /  4.8 °C 27.3 °F /  -2.6 °C 30.3in /  1025.2hPa OSO 6.2mph /  10km/h 10mph /  16.1km/h 59% 0in /  0.0mm
07:39 40.6 °F /  4.8 °C 27.3 °F /  -2.6 °C 30.3in /  1025.2hPa OSO 5.2mph /  8.4km/h 7mph /  11.3km/h 59% 0in /  0.0mm
07:44 40.5 °F /  4.7 °C 27.3 °F /  -2.6 °C 30.3in /  1025.2hPa SO 4.7mph /  7.6km/h 7.4mph /  11.9km/h 59.2% 0in /  0.0mm
07:49 40.5 °F /  4.7 °C 27.5 °F /  -2.5 °C 30.3in /  1025.4hPa OSO 4.3mph /  6.9km/h 7mph /  11.3km/h 59.6% 0in /  0.0mm
07:54 40.5 °F /  4.7 °C 27.7 °F /  -2.4 °C 30.3in /  1025.4hPa SO 4mph /  6.5km/h 8.1mph /  13km/h 60% 0in /  0.0mm
07:59 40.5 °F /  4.7 °C 27.7 °F /  -2.4 °C 30.3in /  1025.4hPa SO 4.5mph /  7.2km/h 8.1mph /  13km/h 60% 0in /  0.0mm
08:04 40.5 °F /  4.7 °C 27.7 °F /  -2.4 °C 30.3in /  1025.5hPa OSO 4.7mph /  7.6km/h 8mph /  12.9km/h 60% 0in /  0.0mm
08:09 40.6 °F /  4.8 °C 27.7 °F /  -2.4 °C 30.3in /  1025.5hPa SO 4.5mph /  7.2km/h 7mph /  11.3km/h 60% 0in /  0.0mm
08:14 40.8 °F /  4.9 °C 27.9 °F /  -2.3 °C 30.3in /  1025.5hPa Sur 4.3mph /  6.9km/h 6.2mph /  10km/h 59.6% 0in /  0.0mm
08:19 41.4 °F /  5.2 °C 27.9 °F /  -2.3 °C 30.3in /  1025.5hPa Sur 4.5mph /  7.3km/h 7.4mph /  11.9km/h 58.6% 0in /  0.0mm
08:24 41.4 °F /  5.2 °C 27.7 °F /  -2.4 °C 30.3in /  1025.5hPa Sur 4.7mph /  7.6km/h 7.4mph /  11.9km/h 58% 0in /  0.0mm
08:29 41.5 °F /  5.3 °C 27.7 °F /  -2.4 °C 30.3in /  1025.5hPa SSE 5.2mph /  8.3km/h 10mph /  16.1km/h 58% 0in /  0.0mm
08:34 41 °F /  5 °C 27.3 °F /  -2.6 °C 30.3in /  1025.5hPa SSE 5.4mph /  8.7km/h 10.4mph /  16.7km/h 58% 0in /  0.0mm
08:39 40.8 °F /  4.9 °C 27.1 °F /  -2.7 °C 30.3in /  1025.5hPa Sur 6.3mph /  10.2km/h 10mph /  16.1km/h 58.2% 0in /  0.0mm
08:44 40.6 °F /  4.8 °C 27.3 °F /  -2.6 °C 30.3in /  1025.5hPa SSE 6.9mph /  11.1km/h 10.7mph /  17.2km/h 59% 0in /  0.0mm
08:49 40.5 °F /  4.7 °C 27.3 °F /  -2.6 °C 30.3in /  1025.5hPa Sur 6.5mph /  10.4km/h 11mph /  17.7km/h 59.3% 0in /  0.0mm
08:54 40.5 °F /  4.7 °C 27.7 °F /  -2.4 °C 30.3in /  1025.4hPa SSE 6.2mph /  10km/h 8.1mph /  13km/h 60% 0in /  0.0mm
08:59 40.5 °F /  4.7 °C 27.7 °F /  -2.4 °C 30.3in /  1025.4hPa SSO 5.7mph /  9.1km/h 8.1mph /  13km/h 60% 0in /  0.0mm
09:04 40.6 °F /  4.8 °C 27.9 °F /  -2.3 °C 30.3in /  1025.4hPa SSO 5.4mph /  8.7km/h 8.5mph /  13.7km/h 60% 0in /  0.0mm
09:09 40.8 °F /  4.9 °C 28 °F /  -2.2 °C 30.3in /  1025.4hPa SSO 5.4mph /  8.7km/h 9mph /  14.5km/h 59.9% 0in /  0.0mm
09:14 41.2 °F /  5.1 °C 27.9 °F /  -2.3 °C 30.3in /  1025.4hPa SO 5.4mph /  8.7km/h 9.7mph /  15.6km/h 59% 0in /  0.0mm
09:19 41.4 °F /  5.2 °C 28 °F /  -2.2 °C 30.3in /  1025.5hPa SO 5.3mph /  8.5km/h 10mph /  16.1km/h 58.6% 0in /  0.0mm
09:24 41.5 °F /  5.3 °C 27.9 °F /  -2.3 °C 30.3in /  1025.5hPa OSO 5.2mph /  8.4km/h 9mph /  14.5km/h 58% 0in /  0.0mm
09:29 41.9 °F /  5.5 °C 28 °F /  -2.2 °C 30.3in /  1025.5hPa SO 4.9mph /  7.9km/h 7mph /  11.3km/h 57.7% 0in /  0.0mm
09:34 42.3 °F /  5.7 °C 28 °F /  -2.2 °C 30.3in /  1025.7hPa SO 4.7mph /  7.6km/h 7mph /  11.3km/h 57% 0in /  0.0mm
09:39 42.8 °F /  6 °C 28.2 °F /  -2.1 °C 30.3in /  1025.7hPa SSO 4.5mph /  7.2km/h 7mph /  11.3km/h 56% 0in /  0.0mm
09:44 43.3 °F /  6.3 °C 28.4 °F /  -2 °C 30.3in /  1025.7hPa SO 4.3mph /  6.9km/h 7mph /  11.3km/h 55.2% 0in /  0.0mm
09:49 44.1 °F /  6.7 °C 28.8 °F /  -1.8 °C 30.3in /  1026.0hPa SSO 3.9mph /  6.2km/h 8.5mph /  13.7km/h 54.8% 0in /  0.0mm
09:54 44.8 °F /  7.1 °C 29.1 °F /  -1.6 °C 30.3in /  1026.0hPa SSO 3.6mph /  5.8km/h 9mph /  14.5km/h 53.7% 0in /  0.0mm
09:59 45.5 °F /  7.5 °C 29.1 °F /  -1.6 °C 30.3in /  1026.0hPa SSE 4.7mph /  7.6km/h 11.5mph /  18.5km/h 52.8% 0in /  0.0mm
10:04 45.3 °F /  7.4 °C 29.1 °F /  -1.6 °C 30.3in /  1026.1hPa Sur 5.2mph /  8.4km/h 12.7mph /  20.4km/h 53% 0in /  0.0mm
10:09 45 °F /  7.2 °C 29.1 °F /  -1.6 °C 30.3in /  1026.1hPa Sur 7mph /  11.2km/h 13mph /  20.9km/h 53.5% 0in /  0.0mm
10:14 44.8 °F /  7.1 °C 29.3 °F /  -1.5 °C 30.3in /  1026.1hPa Sur 8.1mph /  13km/h 12mph /  19.3km/h 54.4% 0in /  0.0mm
10:19 44.2 °F /  6.8 °C 29.3 °F /  -1.5 °C 30.3in /  1026.1hPa Sur 8.1mph /  13km/h 12.7mph /  20.4km/h 55.5% 0in /  0.0mm
10:24 44.2 °F /  6.8 °C 29.7 °F /  -1.3 °C 30.3in /  1026.1hPa Sur 8.1mph /  13km/h 13mph /  20.9km/h 56% 0in /  0.0mm
10:29 44.8 °F /  7.1 °C 30 °F /  -1.1 °C 30.3in /  1026.1hPa Sur 7.6mph /  12.3km/h 13mph /  20.9km/h 56.2% 0in /  0.0mm
10:34 45.1 °F /  7.3 °C 30.4 °F /  -0.9 °C 30.3in /  1026.3hPa Sur 7.4mph /  11.9km/h 12mph /  19.3km/h 56% 0in /  0.0mm
10:39 45.9 °F /  7.7 °C 30.7 °F /  -0.7 °C 30.3in /  1026.3hPa Sur 6.7mph /  10.8km/h 9.2mph /  14.8km/h 55.1% 0in /  0.0mm
10:44 46.6 °F /  8.1 °C 30.9 °F /  -0.6 °C 30.3in /  1026.3hPa Sur 6.4mph /  10.3km/h 10.4mph /  16.7km/h 54.2% 0in /  0.0mm
10:49 47.1 °F /  8.4 °C 30.9 °F /  -0.6 °C 30.3in /  1026.3hPa Sur 6.4mph /  10.3km/h 10.4mph /  16.7km/h 53% 0in /  0.0mm
10:54 48 °F /  8.9 °C 31.1 °F /  -0.5 °C 30.3in /  1026.3hPa Sur 6.4mph /  10.3km/h 12.5mph /  20.1km/h 51.8% 0in /  0.0mm
10:59 49.1 °F /  9.5 °C 31.5 °F /  -0.3 °C 30.3in /  1026.3hPa Sur 7.1mph /  11.4km/h 13mph /  20.9km/h 50.6% 0in /  0.0mm
11:04 49.8 °F /  9.9 °C 31.3 °F /  -0.4 °C 30.3in /  1026.4hPa SSO 7.4mph /  11.9km/h 12mph /  19.3km/h 48.8% 0in /  0.0mm
11:09 50.5 °F /  10.3 °C 31.5 °F /  -0.3 °C 30.3in /  1026.4hPa SSO 7.4mph /  11.9km/h 10.7mph /  17.2km/h 47.8% 0in /  0.0mm
11:14 51.3 °F /  10.7 °C 31.5 °F /  -0.3 °C 30.3in /  1026.4hPa SSO 7.4mph /  11.9km/h 11mph /  17.7km/h 46.7% 0in /  0.0mm
11:19 51.8 °F /  11 °C 31.5 °F /  -0.3 °C 30.3in /  1026.5hPa SSO 6.2mph /  9.9km/h 9.2mph /  14.8km/h 45.6% 0in /  0.0mm
11:24 52.2 °F /  11.2 °C 31.3 °F /  -0.4 °C 30.3in /  1026.5hPa SSO 5.4mph /  8.7km/h 9.2mph /  14.8km/h 45% 0in /  0.0mm
11:29 52.3 °F /  11.3 °C 31.5 °F /  -0.3 °C 30.3in /  1026.5hPa SO 5.3mph /  8.5km/h 10.7mph /  17.2km/h 44.7% 0in /  0.0mm
11:34 52.7 °F /  11.5 °C 31.3 °F /  -0.4 °C 30.3in /  1026.5hPa SO 5.2mph /  8.4km/h 12.7mph /  20.4km/h 43.7% 0in /  0.0mm
11:39 53.1 °F /  11.7 °C 31.1 °F /  -0.5 °C 30.3in /  1026.2hPa SO 5.8mph /  9.4km/h 13mph /  20.9km/h 43% 0in /  0.0mm
11:44 53.2 °F /  11.8 °C 31.1 °F /  -0.5 °C 30.3in /  1026.2hPa SO 6.2mph /  10km/h 13mph /  20.9km/h 42.8% 0in /  0.0mm
11:49 53.6 °F /  12 °C 31.1 °F /  -0.5 °C 30.3in /  1026.2hPa SO 6.3mph /  10.2km/h 13mph /  20.9km/h 41.9% 0in /  0.0mm
11:54 54 °F /  12.2 °C 30.9 °F /  -0.6 °C 30.3in /  1026.0hPa OSO 6.4mph /  10.3km/h 17.3mph /  27.8km/h 41.4% 0in /  0.0mm
11:59 54.1 °F /  12.3 °C 30.6 °F /  -0.8 °C 30.3in /  1026.0hPa OSO 7.1mph /  11.4km/h 17mph /  27.4km/h 40.6% 0in /  0.0mm
12:04 54.3 °F /  12.4 °C 30.6 °F /  -0.8 °C 30.3in /  1026.0hPa OSO 7.4mph /  11.9km/h 13mph /  20.9km/h 40% 0in /  0.0mm
12:09 54.9 °F /  12.7 °C 30.7 °F /  -0.7 °C 30.3in /  1025.8hPa SO 7.4mph /  11.9km/h 13mph /  20.9km/h 39.8% 0in /  0.0mm
12:14 55 °F /  12.8 °C 30.7 °F /  -0.7 °C 30.3in /  1025.8hPa SO 7.4mph /  11.9km/h 10.4mph /  16.7km/h 39.6% 0in /  0.0mm
12:19 55.4 °F /  13 °C 30.9 °F /  -0.6 °C 30.3in /  1025.8hPa SO 6.2mph /  9.9km/h 9mph /  14.5km/h 39.2% 0in /  0.0mm
12:24 55.8 °F /  13.2 °C 31.1 °F /  -0.5 °C 30.3in /  1025.5hPa SO 5.4mph /  8.7km/h 9mph /  14.5km/h 39% 0in /  0.0mm
12:29 55.8 °F /  13.2 °C 30.7 °F /  -0.7 °C 30.3in /  1025.5hPa SO 4.7mph /  7.6km/h 9.2mph /  14.8km/h 38.3% 0in /  0.0mm
12:34 55.6 °F /  13.1 °C 30.7 °F /  -0.7 °C 30.3in /  1025.5hPa OSO 4.3mph /  6.9km/h 9mph /  14.5km/h 38.5% 0in /  0.0mm
12:39 55.8 °F /  13.2 °C 30.7 °F /  -0.7 °C 30.3in /  1025.0hPa OSO 4.8mph /  7.8km/h 9.2mph /  14.8km/h 38.2% 0in /  0.0mm
12:44 56.1 °F /  13.4 °C 30.7 °F /  -0.7 °C 30.3in /  1025.0hPa OSO 5.2mph /  8.4km/h 9.2mph /  14.8km/h 38% 0in /  0.0mm
12:49 56.3 °F /  13.5 °C 31.1 °F /  -0.5 °C 30.3in /  1025.0hPa SSO 4.2mph /  6.8km/h 9mph /  14.5km/h 38% 0in /  0.0mm
12:54 56.7 °F /  13.7 °C 30.9 °F /  -0.6 °C 30.3in /  1024.3hPa SSO 3.6mph /  5.8km/h 9mph /  14.5km/h 37.5% 0in /  0.0mm
12:59 56.8 °F /  13.8 °C 30.7 °F /  -0.7 °C 30.3in /  1024.3hPa SSO 4.1mph /  6.6km/h 10.4mph /  16.7km/h 37% 0in /  0.0mm
13:04 56.8 °F /  13.8 °C 30.7 °F /  -0.7 °C 30.3in /  1024.3hPa SO 4.3mph /  6.9km/h 10mph /  16.1km/h 37% 0in /  0.0mm
13:09 56.8 °F /  13.8 °C 30.6 °F /  -0.8 °C 30.2in /  1024.2hPa OSO 4.5mph /  7.3km/h 8.1mph /  13km/h 36.8% 0in /  0.0mm
13:14 56.7 °F /  13.7 °C 30.7 °F /  -0.7 °C 30.2in /  1024.2hPa OSO 4.7mph /  7.6km/h 8mph /  12.9km/h 37% 0in /  0.0mm
13:19 56.8 °F /  13.8 °C 30.7 °F /  -0.7 °C 30.2in /  1024.2hPa OSO 4.3mph /  6.9km/h 7mph /  11.3km/h 36.8% 0in /  0.0mm
13:24 57.2 °F /  14 °C 30.4 °F /  -0.9 °C 30.2in /  1023.9hPa OSO 4mph /  6.5km/h 10.7mph /  17.2km/h 36% 0in /  0.0mm
13:29 57.6 °F /  14.2 °C 30.7 °F /  -0.7 °C 30.2in /  1023.9hPa OSO 4.2mph /  6.8km/h 11mph /  17.7km/h 36% 0in /  0.0mm
13:34 57.7 °F /  14.3 °C 30.9 °F /  -0.6 °C 30.2in /  1023.9hPa SO 4.3mph /  6.9km/h 11.5mph /  18.5km/h 36% 0in /  0.0mm
13:39 58.1 °F /  14.5 °C 30.6 °F /  -0.8 °C 30.2in /  1023.6hPa SSO 5.3mph /  8.6km/h 12mph /  19.3km/h 35% 0in /  0.0mm
13:44 58.3 °F /  14.6 °C 30.7 °F /  -0.7 °C 30.2in /  1023.6hPa SSO 5.9mph /  9.5km/h 9.2mph /  14.8km/h 35% 0in /  0.0mm
13:49 58.5 °F /  14.7 °C 30.6 °F /  -0.8 °C 30.2in /  1023.6hPa SSO 5.6mph /  9km/h 10mph /  16.1km/h 34.5% 0in /  0.0mm
13:54 58.5 °F /  14.7 °C 30.7 °F /  -0.7 °C 30.2in /  1023.3hPa SO 5.4mph /  8.7km/h 10.4mph /  16.7km/h 34.8% 0in /  0.0mm
13:59 58.8 °F /  14.9 °C 30.9 °F /  -0.6 °C 30.2in /  1023.3hPa SSO 5.3mph /  8.5km/h 9.2mph /  14.8km/h 34.5% 0in /  0.0mm
14:04 59.4 °F /  15.2 °C 30.7 °F /  -0.7 °C 30.2in /  1023.3hPa SSO 5.2mph /  8.4km/h 10.2mph /  16.4km/h 33.9% 0in /  0.0mm
14:09 59.2 °F /  15.1 °C 30.7 °F /  -0.7 °C 30.2in /  1023.0hPa SO 5.8mph /  9.4km/h 10mph /  16.1km/h 34% 0in /  0.0mm
14:14 59.4 °F /  15.2 °C 30.9 °F /  -0.6 °C 30.2in /  1023.0hPa SSO 6.2mph /  10km/h 11.5mph /  18.5km/h 34% 0in /  0.0mm
14:19 59.5 °F /  15.3 °C 30.7 °F /  -0.7 °C 30.2in /  1023.0hPa SO 6mph /  9.7km/h 12mph /  19.3km/h 33.4% 0in /  0.0mm
14:24 59.9 °F /  15.5 °C 30.6 °F /  -0.8 °C 30.2in /  1022.8hPa SO 5.9mph /  9.5km/h 11mph /  17.7km/h 33% 0in /  0.0mm
14:29 60.3 °F /  15.7 °C 31.1 °F /  -0.5 °C 30.2in /  1022.8hPa SO 5.5mph /  8.8km/h 9.2mph /  14.8km/h 33% 0in /  0.0mm
14:34 60.6 °F /  15.9 °C 30.9 °F /  -0.6 °C 30.2in /  1022.8hPa SO 5.2mph /  8.4km/h 9mph /  14.5km/h 32.4% 0in /  0.0mm
14:39 61 °F /  16.1 °C 30.9 °F /  -0.6 °C 30.2in /  1022.6hPa SO 4.8mph /  7.8km/h 8.7mph /  14km/h 32.1% 0in /  0.0mm
14:44 61 °F /  16.1 °C 30.9 °F /  -0.6 °C 30.2in /  1022.6hPa SSO 4.7mph /  7.6km/h 10.4mph /  16.7km/h 32% 0in /  0.0mm
14:49 61.2 °F /  16.2 °C 30.9 °F /  -0.6 °C 30.2in /  1022.6hPa SO 5mph /  8.1km/h 10mph /  16.1km/h 32% 0in /  0.0mm
14:54 61.3 °F /  16.3 °C 31.3 °F /  -0.4 °C 30.2in /  1022.4hPa SSO 5.2mph /  8.4km/h 9mph /  14.5km/h 32% 0in /  0.0mm
14:59 61.5 °F /  16.4 °C 30.7 °F /  -0.7 °C 30.2in /  1022.4hPa Sur 5.2mph /  8.4km/h 8.5mph /  13.7km/h 31.2% 0in /  0.0mm
15:04 61.5 °F /  16.4 °C 30.6 °F /  -0.8 °C 30.2in /  1022.4hPa SSE 5.2mph /  8.4km/h 9.2mph /  14.8km/h 31% 0in /  0.0mm
15:09 61.7 °F /  16.5 °C 30.9 °F /  -0.6 °C 30.2in /  1022.3hPa Sur 5.7mph /  9.1km/h 9.7mph /  15.6km/h 31.2% 0in /  0.0mm
15:14 61.9 °F /  16.6 °C 30.9 °F /  -0.6 °C 30.2in /  1022.3hPa Sur 5.9mph /  9.5km/h 10mph /  16.1km/h 31.2% 0in /  0.0mm
15:19 62.1 °F /  16.7 °C 31.3 °F /  -0.4 °C 30.2in /  1022.3hPa SSO 4.8mph /  7.8km/h 7mph /  11.3km/h 31.4% 0in /  0.0mm
15:24 62.4 °F /  16.9 °C 31.3 °F /  -0.4 °C 30.2in /  1022.2hPa SSO 4.3mph /  6.9km/h 8.5mph /  13.7km/h 31% 0in /  0.0mm
15:29 62.4 °F /  16.9 °C 31.5 °F /  -0.3 °C 30.2in /  1022.2hPa SSO 4.5mph /  7.3km/h 9mph /  14.5km/h 31% 0in /  0.0mm
15:34 62.6 °F /  17 °C 31.5 °F /  -0.3 °C 30.2in /  1022.2hPa SSO 4.7mph /  7.6km/h 8.5mph /  13.7km/h 31% 0in /  0.0mm
15:39 62.6 °F /  17 °C 31.3 °F /  -0.4 °C 30.2in /  1022.0hPa Sur 5mph /  8.1km/h 9mph /  14.5km/h 30.7% 0in /  0.0mm
15:44 62.8 °F /  17.1 °C 31.5 °F /  -0.3 °C 30.2in /  1022.0hPa SSE 5.2mph /  8.4km/h 8.1mph /  13km/h 30.7% 0in /  0.0mm
15:49 63 °F /  17.2 °C 31.6 °F /  -0.2 °C 30.2in /  1022.0hPa Sur 5.2mph /  8.4km/h 8mph /  12.9km/h 30.9% 0in /  0.0mm
15:54 63.1 °F /  17.3 °C 31.8 °F /  -0.1 °C 30.2in /  1021.9hPa SSO 5.2mph /  8.4km/h 6.2mph /  10km/h 30.7% 0in /  0.0mm
15:59 63.3 °F /  17.4 °C 31.3 °F /  -0.4 °C 30.2in /  1021.9hPa SO 4.4mph /  7.1km/h 6.9mph /  11.1km/h 30% 0in /  0.0mm
16:04 63.3 °F /  17.4 °C 31.3 °F /  -0.4 °C 30.2in /  1021.9hPa SSO 4mph /  6.5km/h 7mph /  11.3km/h 30% 0in /  0.0mm
16:09 63.5 °F /  17.5 °C 31.5 °F /  -0.3 °C 30.2in /  1021.6hPa SSO 4mph /  6.5km/h 7.4mph /  11.9km/h 30% 0in /  0.0mm
16:14 63.7 °F /  17.6 °C 31.6 °F /  -0.2 °C 30.2in /  1021.6hPa SSE 4mph /  6.5km/h 7.6mph /  12.2km/h 30% 0in /  0.0mm
16:19 63.5 °F /  17.5 °C 31.5 °F /  -0.3 °C 30.2in /  1021.6hPa Sur 4.2mph /  6.8km/h 8mph /  12.9km/h 30% 0in /  0.0mm
16:24 63.7 °F /  17.6 °C 32 °F /  0 °C 30.2in /  1021.5hPa Sur 4.3mph /  6.9km/h 6mph /  9.7km/h 30.3% 0in /  0.0mm
16:29 63.9 °F /  17.7 °C 31.8 °F /  -0.1 °C 30.2in /  1021.5hPa SSE 4.1mph /  6.6km/h 6.9mph /  11.1km/h 30% 0in /  0.0mm
16:34 63.9 °F /  17.7 °C 31.8 °F /  -0.1 °C 30.2in /  1021.5hPa SE 4mph /  6.5km/h 7mph /  11.3km/h 30% 0in /  0.0mm
16:39 63.9 °F /  17.7 °C 31.8 °F /  -0.1 °C 30.2in /  1021.5hPa SSE 4.2mph /  6.8km/h 6.9mph /  11.1km/h 30.1% 0in /  0.0mm
16:44 63.9 °F /  17.7 °C 32 °F /  0 °C 30.2in /  1021.5hPa SSE 4.3mph /  6.9km/h 7.4mph /  11.9km/h 30.2% 0in /  0.0mm
16:49 63.9 °F /  17.7 °C 32 °F /  0 °C 30.2in /  1021.5hPa SSE 4.3mph /  6.9km/h 7mph /  11.3km/h 30.3% 0in /  0.0mm
16:54 63.9 °F /  17.7 °C 31.6 °F /  -0.2 °C 30.2in /  1021.5hPa SSE 4.3mph /  6.9km/h 7.4mph /  11.9km/h 30% 0in /  0.0mm
16:59 63.7 °F /  17.6 °C 31.6 °F /  -0.2 °C 30.2in /  1021.5hPa SE 4.3mph /  6.9km/h 7mph /  11.3km/h 30% 0in /  0.0mm
17:04 63.7 °F /  17.6 °C 32.2 °F /  0.1 °C 30.2in /  1021.5hPa SE 4.3mph /  6.9km/h 6mph /  9.7km/h 30.7% 0in /  0.0mm
17:09 63.7 °F /  17.6 °C 32.5 °F /  0.3 °C 30.2in /  1021.3hPa ESE 3.5mph /  5.7km/h 6.4mph /  10.3km/h 31% 0in /  0.0mm
17:14 63.5 °F /  17.5 °C 32.4 °F /  0.2 °C 30.2in /  1021.3hPa ESE 3.1mph /  5km/h 7.6mph /  12.2km/h 31% 0in /  0.0mm
17:19 63.1 °F /  17.3 °C 32 °F /  0 °C 30.2in /  1021.4hPa ESE 4.4mph /  7.1km/h 8.1mph /  13km/h 31% 0in /  0.0mm
17:24 63 °F /  17.2 °C 32.5 °F /  0.3 °C 30.2in /  1021.4hPa ESE 5.2mph /  8.4km/h 8.1mph /  13km/h 31.8% 0in /  0.0mm
17:29 62.8 °F /  17.1 °C 32.5 °F /  0.3 °C 30.2in /  1021.4hPa SE 4.8mph /  7.8km/h 7mph /  11.3km/h 32% 0in /  0.0mm
17:34 62.6 °F /  17 °C 32.2 °F /  0.1 °C 30.2in /  1021.4hPa SE 4.7mph /  7.6km/h 6.9mph /  11.1km/h 32% 0in /  0.0mm
17:39 62.4 °F /  16.9 °C 32.2 °F /  0.1 °C 30.2in /  1021.4hPa ESE 4.5mph /  7.2km/h 7mph /  11.3km/h 32% 0in /  0.0mm
17:44 62.2 °F /  16.8 °C 32.4 °F /  0.2 °C 30.2in /  1021.4hPa SE 4.3mph /  6.9km/h 6mph /  9.7km/h 32.3% 0in /  0.0mm
17:49 62.2 °F /  16.8 °C 32.7 °F /  0.4 °C 30.2in /  1021.4hPa SE 4.1mph /  6.6km/h 6mph /  9.7km/h 33% 0in /  0.0mm
17:54 62.1 °F /  16.7 °C 32.5 °F /  0.3 °C 30.2in /  1021.4hPa SE 4mph /  6.5km/h 6mph /  9.7km/h 33% 0in /  0.0mm
17:59 61.9 °F /  16.6 °C 32.7 °F /  0.4 °C 30.2in /  1021.4hPa SE 3.4mph /  5.5km/h 5mph /  8km/h 33.4% 0in /  0.0mm
18:04 61.7 °F /  16.5 °C 32.9 °F /  0.5 °C 30.2in /  1021.5hPa SE 3.1mph /  5km/h 5mph /  8km/h 34% 0in /  0.0mm
18:09 61.5 °F /  16.4 °C 32.9 °F /  0.5 °C 30.2in /  1021.5hPa SE 2.1mph /  3.3km/h 2mph /  3.2km/h 34% 0in /  0.0mm
18:14 61.2 °F /  16.2 °C 33.1 °F /  0.6 °C 30.2in /  1021.5hPa SE 1.4mph /  2.2km/h 2.4mph /  3.9km/h 34.6% 0in /  0.0mm
18:19 60.8 °F /  16 °C 32.9 °F /  0.5 °C 30.2in /  1021.7hPa SE 0.5mph /  0.8km/h 2.3mph /  3.7km/h 35% 0in /  0.0mm
18:24 60.4 °F /  15.8 °C 33.1 °F /  0.6 °C 30.2in /  1021.7hPa Calm   3.5mph /  5.6km/h 35.6% 0in /  0.0mm
18:29 59.9 °F /  15.5 °C 33.1 °F /  0.6 °C 30.2in /  1021.7hPa ESE 1.2mph /  1.9km/h 4.7mph /  7.6km/h 36.4% 0in /  0.0mm
18:34 59.2 °F /  15.1 °C 33.3 °F /  0.7 °C 30.2in /  1021.8hPa ESE 2mph /  3.2km/h 7.6mph /  12.2km/h 37.7% 0in /  0.0mm
18:39 58.1 °F /  14.5 °C 33.6 °F /  0.9 °C 30.2in /  1021.8hPa SSO 3.7mph /  5.9km/h 8.1mph /  13km/h 39.4% 0in /  0.0mm
18:44 57.7 °F /  14.3 °C 34.5 °F /  1.4 °C 30.2in /  1021.8hPa SSO 4.7mph /  7.6km/h 8mph /  12.9km/h 41.7% 0in /  0.0mm
18:49 57.6 °F /  14.2 °C 35.2 °F /  1.8 °C 30.2in /  1022.3hPa SO 4mph /  6.4km/h 6mph /  9.7km/h 43% 0in /  0.0mm
18:54 57.4 °F /  14.1 °C 35.4 °F /  1.9 °C 30.2in /  1022.3hPa SO 3.6mph /  5.8km/h 6.2mph /  10km/h 43.5% 0in /  0.0mm
18:59 56.8 °F /  13.8 °C 36.1 °F /  2.3 °C 30.2in /  1022.3hPa SO 3.6mph /  5.8km/h 7.6mph /  12.2km/h 45.7% 0in /  0.0mm
19:04 56.7 °F /  13.7 °C 36.7 °F /  2.6 °C 30.2in /  1022.4hPa SO 3.6mph /  5.8km/h 8.1mph /  13km/h 47.2% 0in /  0.0mm
19:09 56.3 °F /  13.5 °C 36.9 °F /  2.7 °C 30.2in /  1022.4hPa OSO 3.6mph /  5.8km/h 8mph /  12.9km/h 48.3% 0in /  0.0mm
19:14 55.9 °F /  13.3 °C 37.2 °F /  2.9 °C 30.2in /  1022.4hPa SSO 3.6mph /  5.8km/h 6.4mph /  10.3km/h 49.4% 0in /  0.0mm
19:19 55.8 °F /  13.2 °C 37.2 °F /  2.9 °C 30.2in /  1022.6hPa SSO 3.6mph /  5.8km/h 7mph /  11.3km/h 50% 0in /  0.0mm
19:24 55.4 °F /  13 °C 37.6 °F /  3.1 °C 30.2in /  1022.6hPa SO 3.6mph /  5.8km/h 6.9mph /  11.1km/h 51% 0in /  0.0mm
19:29 55 °F /  12.8 °C 37.8 °F /  3.2 °C 30.2in /  1022.6hPa SO 3.2mph /  5.1km/h 7mph /  11.3km/h 51.9% 0in /  0.0mm
19:34 54.9 °F /  12.7 °C 37.8 °F /  3.2 °C 30.2in /  1022.6hPa SO 2.9mph /  4.7km/h 9.2mph /  14.8km/h 52.6% 0in /  0.0mm
19:39 54.5 °F /  12.5 °C 37.8 °F /  3.2 °C 30.2in /  1022.6hPa SO 3.8mph /  6.1km/h 9mph /  14.5km/h 53.1% 0in /  0.0mm
19:44 54.1 °F /  12.3 °C 37.9 °F /  3.3 °C 30.2in /  1022.6hPa SSO 4.3mph /  6.9km/h 7mph /  11.3km/h 54% 0in /  0.0mm
19:49 54 °F /  12.2 °C 37.9 °F /  3.3 °C 30.2in /  1022.6hPa SSO 4.1mph /  6.6km/h 5.9mph /  9.5km/h 54.6% 0in /  0.0mm
19:54 53.8 °F /  12.1 °C 37.9 °F /  3.3 °C 30.2in /  1022.5hPa Sur 4mph /  6.5km/h 8.5mph /  13.7km/h 55.1% 0in /  0.0mm
19:59 53.2 °F /  11.8 °C 37.9 °F /  3.3 °C 30.2in /  1022.5hPa SSO 4.5mph /  7.2km/h 9.7mph /  15.6km/h 56% 0in /  0.0mm
20:04 53.1 °F /  11.7 °C 38.1 °F /  3.4 °C 30.2in /  1022.5hPa SSO 4.7mph /  7.6km/h 10mph /  16.1km/h 57% 0in /  0.0mm
20:09 52.7 °F /  11.5 °C 37.9 °F /  3.3 °C 30.2in /  1022.5hPa SSO 4.5mph /  7.2km/h 7mph /  11.3km/h 57% 0in /  0.0mm
20:14 52.7 °F /  11.5 °C 38.1 °F /  3.4 °C 30.2in /  1022.5hPa SSO 4.3mph /  6.9km/h 6mph /  9.7km/h 57.8% 0in /  0.0mm
20:19 52.5 °F /  11.4 °C 38.1 °F /  3.4 °C 30.2in /  1022.5hPa SSO 3.4mph /  5.5km/h 5.4mph /  8.7km/h 58% 0in /  0.0mm
20:24 52.5 °F /  11.4 °C 38.1 °F /  3.4 °C 30.2in /  1022.5hPa Sur 2.9mph /  4.6km/h 6.9mph /  11.1km/h 58% 0in /  0.0mm
20:29 52.3 °F /  11.3 °C 38.3 °F /  3.5 °C 30.2in /  1022.5hPa Sur 3.4mph /  5.4km/h 7mph /  11.3km/h 58.6% 0in /  0.0mm
20:34 52.3 °F /  11.3 °C 38.3 °F /  3.5 °C 30.2in /  1022.5hPa Sur 3.6mph /  5.8km/h 7mph /  11.3km/h 59% 0in /  0.0mm
20:39 52.2 °F /  11.2 °C 38.1 °F /  3.4 °C 30.2in /  1022.5hPa Sur 3.6mph /  5.8km/h 6mph /  9.7km/h 59% 0in /  0.0mm
20:44 51.8 °F /  11 °C 38.3 °F /  3.5 °C 30.2in /  1022.5hPa Sur 3.6mph /  5.8km/h 6mph /  9.7km/h 59.8% 0in /  0.0mm
20:49 51.4 °F /  10.8 °C 38.3 °F /  3.5 °C 30.2in /  1022.7hPa Sur 2.6mph /  4.2km/h 6mph /  9.7km/h 60.5% 0in /  0.0mm
20:54 51.3 °F /  10.7 °C 38.3 °F /  3.5 °C 30.2in /  1022.7hPa Sur 2mph /  3.2km/h 4mph /  6.4km/h 61.2% 0in /  0.0mm
20:59 50.9 °F /  10.5 °C 38.5 °F /  3.6 °C 30.2in /  1022.7hPa Sur 2mph /  3.2km/h 4.6mph /  7.4km/h 62.3% 0in /  0.0mm
21:04 50.7 °F /  10.4 °C 38.7 °F /  3.7 °C 30.2in /  1022.7hPa SSO 2mph /  3.2km/h 5mph /  8km/h 63% 0in /  0.0mm
21:09 50.5 °F /  10.3 °C 38.5 °F /  3.6 °C 30.2in /  1022.6hPa SSO 2.2mph /  3.6km/h 5mph /  8km/h 63% 0in /  0.0mm
21:14 50.4 °F /  10.2 °C 38.1 °F /  3.4 °C 30.2in /  1022.6hPa SO 2.4mph /  3.9km/h 4mph /  6.4km/h 62.6% 0in /  0.0mm
21:19 49.8 °F /  9.9 °C 37.9 °F /  3.3 °C 30.2in /  1022.6hPa NO 2.2mph /  3.5km/h 4.6mph /  7.4km/h 63.3% 0in /  0.0mm
21:24 49.5 °F /  9.7 °C 37.9 °F /  3.3 °C 30.2in /  1022.6hPa ONO 2mph /  3.2km/h 5mph /  8km/h 64.4% 0in /  0.0mm
21:29 49.1 °F /  9.5 °C 37.9 °F /  3.3 °C 30.2in /  1022.6hPa OSO 1.9mph /  3km/h 4.6mph /  7.4km/h 65% 0in /  0.0mm
21:34 48.9 °F /  9.4 °C 37.8 °F /  3.2 °C 30.2in /  1022.6hPa OSO 1.8mph /  2.9km/h 5mph /  8km/h 65.2% 0in /  0.0mm
21:39 48.9 °F /  9.4 °C 38.1 °F /  3.4 °C 30.2in /  1022.6hPa OSO 2.2mph /  3.5km/h 5mph /  8km/h 66% 0in /  0.0mm
21:44 48.7 °F /  9.3 °C 37.9 °F /  3.3 °C 30.2in /  1022.6hPa OSO 2.4mph /  3.9km/h 5mph /  8km/h 66% 0in /  0.0mm
21:49 48.7 °F /  9.3 °C 38.3 °F /  3.5 °C 30.2in /  1022.6hPa OSO 2.2mph /  3.5km/h 4.6mph /  7.4km/h 66.9% 0in /  0.0mm
21:54 48.7 °F /  9.3 °C 38.3 °F /  3.5 °C 30.2in /  1022.6hPa SO 2mph /  3.2km/h 5.2mph /  8.4km/h 67% 0in /  0.0mm
21:59 48.7 °F /  9.3 °C 38.5 °F /  3.6 °C 30.2in /  1022.6hPa SSO 2.6mph /  4.2km/h 5.2mph /  8.4km/h 67.7% 0in /  0.0mm
22:04 48.6 °F /  9.2 °C 38.5 °F /  3.6 °C 30.2in /  1022.6hPa Sur 2.9mph /  4.6km/h 5.8mph /  9.3km/h 68% 0in /  0.0mm
22:09 48.4 °F /  9.1 °C 38.7 °F /  3.7 °C 30.2in /  1022.5hPa Sur 3.6mph /  5.8km/h 6.2mph /  10km/h 68.7% 0in /  0.0mm
22:14 48.4 °F /  9.1 °C 38.7 °F /  3.7 °C 30.2in /  1022.5hPa Sur 4mph /  6.5km/h 6mph /  9.7km/h 69% 0in /  0.0mm
22:19 48.2 °F /  9 °C 38.5 °F /  3.6 °C 30.2in /  1022.6hPa SSO 4mph /  6.5km/h 6.4mph /  10.3km/h 69% 0in /  0.0mm
22:24 48.2 °F /  9 °C 38.8 °F /  3.8 °C 30.2in /  1022.6hPa SSO 4mph /  6.5km/h 7mph /  11.3km/h 70% 0in /  0.0mm
22:29 48.2 °F /  9 °C 38.8 °F /  3.8 °C 30.2in /  1022.6hPa SSO 4mph /  6.5km/h 6.2mph /  10km/h 70% 0in /  0.0mm
22:34 48.4 °F /  9.1 °C 39 °F /  3.9 °C 30.2in /  1022.6hPa SSO 4mph /  6.5km/h 6.9mph /  11.1km/h 70% 0in /  0.0mm
22:39 48.4 °F /  9.1 °C 39 °F /  3.9 °C 30.2in /  1022.5hPa SSO 4mph /  6.5km/h 7mph /  11.3km/h 70% 0in /  0.0mm
22:44 48.4 °F /  9.1 °C 39 °F /  3.9 °C 30.2in /  1022.5hPa SO 4mph /  6.5km/h 7.4mph /  11.9km/h 69.9% 0in /  0.0mm
22:49 48.4 °F /  9.1 °C 38.7 °F /  3.7 °C 30.2in /  1022.5hPa SO 4.5mph /  7.2km/h 8.1mph /  13km/h 69% 0in /  0.0mm
22:54 48.4 °F /  9.1 °C 38.7 °F /  3.7 °C 30.2in /  1022.5hPa OSO 4.7mph /  7.6km/h 8mph /  12.9km/h 69% 0in /  0.0mm
22:59 48.4 °F /  9.1 °C 38.7 °F /  3.7 °C 30.2in /  1022.5hPa SO 4.4mph /  7.1km/h 6.9mph /  11.1km/h 69% 0in /  0.0mm
23:04 48.4 °F /  9.1 °C 38.3 °F /  3.5 °C 30.2in /  1022.5hPa SSO 4.3mph /  6.9km/h 7.4mph /  11.9km/h 68% 0in /  0.0mm
23:09 48.4 °F /  9.1 °C 38.3 °F /  3.5 °C 30.2in /  1022.2hPa SO 4.8mph /  7.8km/h 7mph /  11.3km/h 68% 0in /  0.0mm
23:14 48.2 °F /  9 °C 38.1 °F /  3.4 °C 30.2in /  1022.2hPa SO 5.2mph /  8.4km/h 7mph /  11.3km/h 68% 0in /  0.0mm
23:19 48 °F /  8.9 °C 38.1 °F /  3.4 °C 30.2in /  1022.2hPa SO 3.9mph /  6.3km/h 6mph /  9.7km/h 68.7% 0in /  0.0mm
23:24 47.8 °F /  8.8 °C 38.3 °F /  3.5 °C 30.2in /  1022.2hPa OSO 3.1mph /  5km/h 8.1mph /  13km/h 69% 0in /  0.0mm
23:29 47.8 °F /  8.8 °C 38.1 °F /  3.4 °C 30.2in /  1022.2hPa SO 3.7mph /  5.9km/h 8mph /  12.9km/h 69% 0in /  0.0mm
23:34 47.7 °F /  8.7 °C 37.9 °F /  3.3 °C 30.2in /  1022.2hPa SO 4mph /  6.5km/h 7.6mph /  12.2km/h 69% 0in /  0.0mm
23:39 47.5 °F /  8.6 °C 37.8 °F /  3.2 °C 30.2in /  1022.2hPa SO 3.8mph /  6.1km/h 8.1mph /  13km/h 69% 0in /  0.0mm
23:44 47.3 °F /  8.5 °C 37.6 °F /  3.1 °C 30.2in /  1022.2hPa SO 3.6mph /  5.8km/h 8.1mph /  13km/h 69% 0in /  0.0mm
23:49 47.1 °F /  8.4 °C 37.6 °F /  3.1 °C 30.2in /  1022.2hPa SSO 4.3mph /  6.9km/h 8.1mph /  13km/h 69.3% 0in /  0.0mm
23:54 46.9 °F /  8.3 °C 37.8 °F /  3.2 °C 30.2in /  1022.1hPa SSO 4.7mph /  7.6km/h 7mph /  11.3km/h 70.4% 0in /  0.0mm
23:59 46.8 °F /  8.2 °C 37.8 °F /  3.2 °C 30.2in /  1022.1hPa SSO 4.7mph /  7.6km/h 8.1mph /  13km/h 71% 0in /  0.0mm
Murcia-Puente Tocinos, Espa?a
Compliments of Weather Underground - 3.25 mb

La estación de MeteoMurcia.com, publica sus datos en los siguientes proyectos:

Weather Underground PWS IMURCIAP2 Meteoclimatic www.awekas.at

W3Counter
Web Analytics